Time;durP1;ratioP1;P1;durP2;ratioP2;P2;SDS_P1;SDS_P2;PMS_P1;PMS_P2;Temp;Humidity;BMP_temperature;BMP_pressure;BME280_temperature;BME280_humidity;BME280_pressure;Samples;Min_cycle;Max_cycle;Signal;HPM_P1;HPM_P2
2023/10/04 00:00:54;;;;;;;5.50;2.07;;;;;;;-145.68;100.00;74607.28;10491614;28;20184;-68
2023/10/04 00:05:54;;;;;;;5.10;1.90;;;;;;;-145.68;100.00;74609.28;10497296;28;20210;-68
2023/10/04 00:10:55;;;;;;;6.57;2.47;;;;;;;-145.68;100.00;74609.28;10491321;28;20231;-68
2023/10/04 00:15:56;;;;;;;4.43;2.03;;;;;;;-145.68;100.00;74613.28;10492435;28;20697;-68
2023/10/04 00:20:56;;;;;;;4.83;1.70;;;;;;;-145.68;100.00;74615.28;10498608;28;20220;-68
2023/10/04 00:25:56;;;;;;;4.97;2.17;;;;;;;-145.68;100.00;74607.28;10504310;28;20276;-69
2023/10/04 00:30:57;;;;;;;6.30;2.00;;;;;;;-145.68;100.00;74623.28;10498454;28;20268;-67
2023/10/04 00:36:03;;;;;;;4.97;2.03;;;;;;;-145.68;100.00;74623.28;10498128;28;20218;-69
2023/10/04 00:41:04;;;;;;;7.73;2.37;;;;;;;-145.68;100.00;74623.28;10498425;28;20536;-68
2023/10/04 00:46:05;;;;;;;9.57;2.23;;;;;;;-145.68;100.00;74621.28;10504741;28;20222;-68
2023/10/04 00:51:06;;;;;;;6.80;2.53;;;;;;;-145.68;100.00;74625.28;10497634;28;20276;-68
2023/10/04 00:56:12;;;;;;;5.20;2.93;;;;;;;-145.68;100.00;74627.28;10496209;28;20207;-68
2023/10/04 01:01:14;;;;;;;7.93;2.90;;;;;;;-145.68;100.00;74627.28;10501441;28;20183;-68
2023/10/04 01:06:15;;;;;;;6.73;2.40;;;;;;;-145.68;100.00;74633.28;10495768;28;20257;-68
2023/10/04 01:11:16;;;;;;;7.77;2.40;;;;;;;-145.68;100.00;74635.28;10496779;28;20774;-68
2023/10/04 01:16:16;;;;;;;6.97;2.40;;;;;;;-145.68;100.00;74641.28;10495504;28;20218;-68
2023/10/04 01:21:17;;;;;;;8.57;3.00;;;;;;;-145.68;100.00;74639.28;10484405;28;21001;-68
2023/10/04 01:26:25;;;;;;;7.13;2.53;;;;;;;-145.68;100.00;74643.28;10496169;28;20219;-68
2023/10/04 01:31:25;;;;;;;6.23;2.30;;;;;;;-145.68;100.00;74643.28;10496290;28;20246;-69
2023/10/04 01:36:26;;;;;;;6.93;2.53;;;;;;;-145.68;100.00;74653.25;10495979;28;20607;-68
2023/10/04 01:41:27;;;;;;;8.77;2.73;;;;;;;-145.68;100.00;74647.28;10501380;28;20226;-69
2023/10/04 01:46:28;;;;;;;4.97;2.53;;;;;;;-145.68;100.00;74659.25;10494492;28;20544;-68
2023/10/04 01:51:29;;;;;;;12.83;3.40;;;;;;;-145.68;100.00;74687.25;10495243;28;20219;-68
2023/10/04 01:56:29;;;;;;;4.50;2.80;;;;;;;-145.68;100.00;74703.25;10495231;28;20211;-68
2023/10/04 02:01:31;;;;;;;6.87;3.30;;;;;;;-145.68;100.00;74689.25;10500607;28;20199;-69
2023/10/04 02:06:31;;;;;;;7.87;2.87;;;;;;;-145.68;100.00;74699.25;10494625;28;20221;-69
2023/10/04 02:11:32;;;;;;;5.73;3.00;;;;;;;-145.68;100.00;74699.25;10494311;28;20764;-69
2023/10/04 02:16:34;;;;;;;9.97;3.20;;;;;;;-145.68;100.00;74703.25;10497993;28;20299;-68
2023/10/04 02:21:35;;;;;;;6.40;3.00;;;;;;;-145.68;100.00;74711.25;10495520;28;20194;-68
2023/10/04 02:26:35;;;;;;;7.87;3.10;;;;;;;-145.68;100.00;74723.25;10493812;28;20580;-67
2023/10/04 02:31:36;;;;;;;9.83;2.80;;;;;;;-145.68;100.00;74727.25;10492431;28;20277;-67
2023/10/04 02:36:37;;;;;;;9.53;3.00;;;;;;;-145.68;100.00;74717.25;10498085;28;20207;-68
2023/10/04 02:41:40;;;;;;;7.53;2.80;;;;;;;-145.68;100.00;74703.25;10491690;28;20183;-68
2023/10/04 02:46:44;;;;;;;5.70;2.60;;;;;;;-145.68;100.00;74697.25;10492195;28;20207;-68
2023/10/04 02:51:45;;;;;;;7.43;2.27;;;;;;;-145.68;100.00;74689.25;10491873;28;20349;-67
2023/10/04 02:56:50;;;;;;;4.77;2.50;;;;;;;-145.68;100.00;74705.25;10496940;28;20245;-69
2023/10/04 03:01:51;;;;;;;5.37;2.50;;;;;;;-145.68;100.00;74695.25;10491896;28;20281;-68
2023/10/04 03:06:52;;;;;;;6.87;2.60;;;;;;;-145.68;100.00;74687.25;10499513;28;20695;-68
2023/10/04 03:11:53;;;;;;;6.80;3.00;;;;;;;-145.68;100.00;74695.25;10491353;28;20223;-68
2023/10/04 03:16:54;;;;;;;5.67;2.57;;;;;;;-145.68;100.00;74697.25;10496673;28;20203;-67
2023/10/04 03:21:55;;;;;;;6.60;2.27;;;;;;;-145.68;100.00;74693.25;10490802;28;20186;-67
2023/10/04 03:26:58;;;;;;;4.53;1.87;;;;;;;-145.68;100.00;74701.25;10490671;28;20214;-67
2023/10/04 03:32:03;;;;;;;6.20;2.13;;;;;;;-145.68;100.00;74703.25;10491874;28;20722;-67
2023/10/04 03:37:09;;;;;;;12.67;2.57;;;;;;;-145.68;100.00;74721.25;10488719;28;20239;-68
2023/10/04 03:42:12;;;;;;;6.93;2.57;;;;;;;-145.68;100.00;74727.25;10491063;28;20532;-67
2023/10/04 03:47:12;;;;;;;5.07;2.13;;;;;;;-145.68;100.00;74711.25;10490640;28;20211;-67
2023/10/04 03:52:13;;;;;;;8.17;2.07;;;;;;;-145.68;100.00;74683.25;10499451;28;20689;-66
2023/10/04 03:57:14;;;;;;;9.63;2.50;;;;;;;-145.68;100.00;74693.25;10499612;28;20280;-67
2023/10/04 04:02:16;;;;;;;5.53;2.03;;;;;;;-145.68;100.00;74679.25;10498524;28;20190;-66
2023/10/04 04:07:16;;;;;;;7.53;2.20;;;;;;;-145.68;100.00;74701.25;10498071;28;20523;-67
2023/10/04 04:12:17;;;;;;;5.70;2.30;;;;;;;-145.68;100.00;74715.25;10504622;28;20220;-66
2023/10/04 04:17:21;;;;;;;7.47;2.33;;;;;;;-145.68;100.00;74721.25;10497829;28;20223;-66
2023/10/04 04:22:29;;;;;;;4.17;2.40;;;;;;;-145.68;100.00;74713.25;10497660;28;20223;-66
2023/10/04 04:27:30;;;;;;;4.03;2.13;;;;;;;-145.68;100.00;74721.25;10497002;28;20620;-66
2023/10/04 04:32:31;;;;;;;5.60;2.43;;;;;;;-145.68;100.00;74711.25;10504787;28;20264;-66
2023/10/04 04:37:33;;;;;;;4.20;2.60;;;;;;;-145.68;100.00;74705.25;10494878;28;20769;-67
2023/10/04 04:42:37;;;;;;;7.57;2.73;;;;;;;-145.68;100.00;74727.25;10496780;28;20198;-66
2023/10/04 04:47:40;;;;;;;8.07;2.63;;;;;;;-145.68;100.00;74719.25;10491547;28;20205;-67
2023/10/04 04:52:42;;;;;;;4.93;2.50;;;;;;;-145.68;100.00;74707.25;10502160;28;20231;-66
2023/10/04 04:57:43;;;;;;;8.10;2.27;;;;;;;-145.68;100.00;74715.25;10496243;28;20213;-66
2023/10/04 05:02:43;;;;;;;5.43;2.60;;;;;;;-145.68;100.00;74717.25;10491424;28;20189;-67
2023/10/04 05:07:44;;;;;;;6.20;3.23;;;;;;;-145.68;100.00;74731.25;10512028;28;20210;-67
2023/10/04 05:12:48;;;;;;;8.27;2.47;;;;;;;-145.68;100.00;74729.25;10497170;28;20232;-67
2023/10/04 05:17:51;;;;;;;5.03;2.70;;;;;;;-145.68;100.00;74719.25;10496213;28;20226;-68
2023/10/04 05:22:52;;;;;;;4.87;2.70;;;;;;;-145.68;100.00;74713.25;10496743;28;20256;-68
2023/10/04 05:28:00;;;;;;;5.80;3.00;;;;;;;-145.68;100.00;74709.25;10501910;28;20243;-67
2023/10/04 05:33:01;;;;;;;5.20;2.87;;;;;;;-145.68;100.00;74723.25;10501462;28;20215;-67
2023/10/04 05:38:03;;;;;;;9.17;3.17;;;;;;;-145.68;100.00;74721.25;10492099;28;20580;-68
2023/10/04 05:43:04;;;;;;;4.63;2.57;;;;;;;-145.68;100.00;74707.25;10495870;28;20223;-68
2023/10/04 05:48:06;;;;;;;5.70;2.83;;;;;;;-145.68;100.00;74711.25;10500993;28;20218;-67
2023/10/04 05:53:08;;;;;;;6.07;2.80;;;;;;;-145.68;100.00;74699.25;10495386;28;20572;-67
2023/10/04 05:58:08;;;;;;;6.17;2.60;;;;;;;-145.68;100.00;74671.25;10494853;28;20211;-67
2023/10/04 06:03:13;;;;;;;7.20;2.93;;;;;;;-145.68;100.00;74677.25;10494886;28;20187;-66
2023/10/04 06:08:21;;;;;;;5.73;2.77;;;;;;;-145.68;100.00;74697.25;10493618;28;20223;-67
2023/10/04 06:13:25;;;;;;;7.67;3.20;;;;;;;-145.68;100.00;74693.25;10493873;28;20214;-67
2023/10/04 06:18:29;;;;;;;8.90;3.00;;;;;;;-145.68;100.00;74675.25;10494131;28;20211;-67
2023/10/04 06:23:32;;;;;;;5.30;2.80;;;;;;;-145.68;99.02;74647.28;10494270;28;20214;-66
2023/10/04 06:28:32;;;;;;;7.13;2.70;;;;;;;-145.68;96.62;74635.28;10492933;28;20211;-66
2023/10/04 06:33:32;;;;;;;5.13;2.43;;;;;;;-145.68;93.74;74609.28;10502920;28;20198;-65
2023/10/04 06:38:33;;;;;;;6.80;2.30;;;;;;;-145.68;91.67;74591.28;10496032;28;20708;-66
2023/10/04 06:43:35;;;;;;;8.43;2.97;;;;;;;-145.68;91.07;74623.28;10499158;28;20610;-66
2023/10/04 06:48:35;;;;;;;18.67;3.60;;;;;;;-145.68;91.46;74615.28;10489967;28;20562;-67
2023/10/04 06:53:41;;;;;;;5.70;2.25;;;;;;;-145.68;91.61;74611.28;10479029;28;20186;-66
2023/10/04 06:58:41;;;;;;;7.93;3.53;;;;;;;-145.68;90.68;74609.28;10491874;28;20215;-66
2023/10/04 07:03:43;;;;;;;3.90;2.90;;;;;;;-145.68;89.37;74601.28;10491330;28;20187;-66
2023/10/04 07:08:44;;;;;;;5.47;2.10;;;;;;;-145.68;88.59;74569.28;10487795;28;20654;-66
2023/10/04 07:13:44;;;;;;;5.50;2.63;;;;;;;-145.68;86.32;74569.28;10483598;28;20195;-65
2023/10/04 07:18:45;;;;;;;5.83;2.97;;;;;;;-145.68;87.50;74621.28;10486213;28;20195;-66
2023/10/04 07:23:46;;;;;;;7.68;2.72;;;;;;;-145.68;88.69;74601.28;10492939;28;20279;-66
2023/10/04 07:28:46;;;;;;;7.57;3.15;;;;;;;-145.68;87.80;74629.28;10496544;28;20227;-66
2023/10/04 07:33:46;;;;;;;8.70;3.42;;;;;;;-145.68;88.57;74605.28;10499375;28;20183;-65
2023/10/04 07:38:47;;;;;;;6.65;3.25;;;;;;;-145.68;88.87;74613.28;10499064;28;20244;-66
2023/10/04 07:43:47;;;;;;;8.23;2.95;;;;;;;-145.68;89.29;74617.28;10510375;28;20561;-65
2023/10/04 07:48:48;;;;;;;5.70;3.00;;;;;;;-145.68;88.62;74603.28;10497744;28;20215;-66
2023/10/04 07:53:50;;;;;;;8.52;2.95;;;;;;;-145.68;88.28;74615.28;10497283;28;20306;-66
2023/10/04 07:58:51;;;;;;;5.50;2.90;;;;;;;-145.68;89.62;74595.28;10502637;28;20199;-66
2023/10/04 08:03:52;;;;;;;6.90;3.17;;;;;;;-145.68;88.27;74587.28;10497913;28;20233;-63
2023/10/04 08:08:53;;;;;;;6.22;2.97;;;;;;;-145.68;87.06;74579.28;10497641;28;20231;-65
2023/10/04 08:13:53;;;;;;;8.18;3.03;;;;;;;-145.68;86.55;74553.28;10498063;28;20196;-65
2023/10/04 08:18:57;;;;;;;6.50;2.65;;;;;;;-145.68;85.35;74567.28;10503168;28;20232;-67
2023/10/04 08:24:00;;;;;;;10.52;3.25;;;;;;;-145.68;85.47;74539.31;10497496;28;20194;-67
2023/10/04 08:29:00;;;;;;;7.25;3.10;;;;;;;-145.68;84.04;74535.31;10501487;28;20298;-66
2023/10/04 08:34:01;;;;;;;7.90;2.80;;;;;;;-145.68;83.16;74531.31;10497025;28;20194;-66
2023/10/04 08:39:10;;;;;;;6.60;3.00;;;;;;;-145.68;82.74;74547.31;10501968;28;20190;-67
2023/10/04 08:44:11;;;;;;;9.35;3.10;;;;;;;-145.68;82.44;74553.28;10493731;28;20211;-67
2023/10/04 08:49:15;;;;;;;6.68;2.22;;;;;;;-145.68;82.65;74501.31;10497018;28;20223;-68
2023/10/04 08:54:21;;;;;;;6.47;2.63;;;;;;;-145.68;82.74;74521.31;10496315;28;21056;-67
2023/10/04 08:59:23;;;;;;;5.10;2.58;;;;;;;-145.68;80.97;74519.31;10501979;28;20195;-67
2023/10/04 09:04:24;;;;;;;8.90;2.60;;;;;;;-145.68;80.89;74469.31;10495628;28;20577;-67
2023/10/04 09:09:26;;;;;;;7.78;2.63;;;;;;;-145.68;78.87;74451.34;10495722;28;20281;-67
2023/10/04 09:14:27;;;;;;;7.22;2.53;;;;;;;-145.68;76.93;74403.34;10497611;28;20688;-67
2023/10/04 09:19:27;;;;;;;5.85;2.58;;;;;;;-145.68;75.88;74407.34;10497838;28;20192;-67
2023/10/04 09:24:28;;;;;;;3.83;2.15;;;;;;;-145.68;76.00;74437.34;10496833;28;20211;-67
2023/10/04 09:29:30;;;;;;;6.55;2.30;;;;;;;-145.68;75.81;74381.34;10495442;28;20218;-68
2023/10/04 09:34:31;;;;;;;6.60;2.03;;;;;;;-145.68;72.86;74309.38;10495174;28;20246;-68
2023/10/04 09:39:32;;;;;;;5.53;2.65;;;;;;;-145.68;71.61;74275.41;10491933;28;20244;-68
2023/10/04 09:44:35;;;;;;;6.50;2.42;;;;;;;-145.68;68.47;74239.41;10494686;28;20761;-69
2023/10/04 09:49:37;;;;;;;5.18;2.10;;;;;;;-145.68;67.46;74245.41;10493008;28;20218;-69
2023/10/04 09:54:38;;;;;;;3.35;2.05;;;;;;;-145.68;64.08;74093.47;10499802;28;20246;-69
2023/10/04 09:59:39;;;;;;;8.30;2.28;;;;;;;-145.68;60.36;74095.47;10493680;28;20628;-69
2023/10/04 10:04:46;;;;;;;6.78;2.38;;;;;;;-145.68;60.39;74029.50;10493304;28;20294;-69
2023/10/04 10:10:02;;;;;;;5.45;1.88;;;;;;;-145.68;60.28;74123.47;10491801;28;20671;-68
2023/10/04 10:15:07;;;;;;;3.92;1.90;;;;;;;-145.68;59.53;74009.53;10499105;28;20219;-68
2023/10/04 10:20:09;;;;;;;7.40;1.95;;;;;;;-145.68;55.77;73895.56;10492751;28;20701;-70
2023/10/04 10:25:16;;;;;;;4.72;2.20;;;;;;;-145.68;55.31;73841.59;10491591;28;20215;-69
2023/10/04 10:30:19;;;;;;;8.05;2.20;;;;;;;-145.68;53.66;73953.53;10494377;28;20239;-69
2023/10/04 10:35:57;;;;;;;4.45;1.75;;;;;;;-145.68;54.83;73851.59;10494931;28;20717;-69
2023/10/04 10:40:57;;;;;;;7.25;2.03;;;;;;;-145.68;52.60;73787.63;10490487;28;20236;-69
2023/10/04 10:46:26;;;;;;;5.53;2.67;;;;;;;-145.68;52.75;73947.56;10492531;28;20223;-69
2023/10/04 10:51:43;;;;;;;4.15;1.73;;;;;;;-145.68;55.16;73965.53;10497782;28;20215;-69
2023/10/04 10:56:43;;;;;;;4.05;1.85;;;;;;;-145.68;56.39;74113.47;10490039;28;20654;-69
2023/10/04 11:01:43;;;;;;;7.63;2.40;;;;;;;-145.68;57.53;74067.50;10491458;28;20178;-69
2023/10/04 11:06:45;;;;;;;9.73;2.10;;;;;;;-145.68;57.01;74091.47;10491352;28;20207;-68
2023/10/04 11:11:47;;;;;;;5.15;1.90;;;;;;;-145.68;55.18;74015.50;10491832;28;20739;-68
2023/10/04 11:16:49;;;;;;;7.65;2.83;;;;;;;-145.68;55.39;74001.53;10491207;28;20242;-70
2023/10/04 11:21:49;;;;;;;5.00;2.10;;;;;;;-145.68;53.16;73871.59;10490934;28;20821;-69
2023/10/04 11:26:50;;;;;;;6.18;2.10;;;;;;;-145.68;50.53;73723.66;10491763;28;20621;-69
2023/10/04 11:31:50;;;;;;;5.95;2.38;;;;;;;-145.68;51.95;73981.53;10495229;28;20242;-69
2023/10/04 11:36:57;;;;;;;6.50;2.22;;;;;;;-145.68;52.54;73853.59;10491166;28;20225;-68
2023/10/04 11:41:58;;;;;;;8.25;2.67;;;;;;;-145.68;49.78;73805.63;10489401;28;20195;-71
2023/10/04 11:47:00;;;;;;;8.95;2.90;;;;;;;-145.68;51.60;73925.56;10495132;28;20669;-68
2023/10/04 11:52:03;;;;;;;8.30;2.88;;;;;;;-145.68;55.61;74113.47;10490690;28;20254;-68
2023/10/04 11:57:03;;;;;;;5.35;2.47;;;;;;;-145.68;54.59;73999.53;10486280;28;20211;-68
2023/10/04 12:02:04;;;;;;;6.97;2.42;;;;;;;-145.68;53.56;73901.56;10490638;28;20183;-68
2023/10/04 12:07:06;;;;;;;6.60;2.30;;;;;;;-145.68;52.68;73789.63;10496011;28;20203;-68
2023/10/04 12:12:07;;;;;;;7.40;2.60;;;;;;;-145.68;51.71;73855.59;10491203;28;20360;-68
2023/10/04 12:17:08;;;;;;;8.75;2.80;;;;;;;-145.68;55.49;74119.47;10496607;28;20259;-68
2023/10/04 12:22:09;;;;;;;5.05;2.45;;;;;;;-145.68;55.65;74039.50;10496304;28;20184;-68
2023/10/04 12:27:09;;;;;;;5.70;2.42;;;;;;;-145.68;54.58;74001.53;10497615;28;20613;-68
2023/10/04 12:32:10;;;;;;;5.13;2.30;;;;;;;-145.68;54.09;74007.53;10495892;28;20219;-68
2023/10/04 12:37:10;;;;;;;4.65;2.30;;;;;;;-145.68;55.52;74063.50;10496594;28;20660;-69
2023/10/04 12:42:11;;;;;;;6.88;2.40;;;;;;;-145.68;54.81;74003.53;10496144;28;20665;-69
2023/10/04 12:47:13;;;;;;;5.07;2.38;;;;;;;-145.68;56.31;74031.50;10496074;28;20223;-68
2023/10/04 12:52:13;;;;;;;6.13;2.67;;;;;;;-145.68;55.63;74007.53;10493691;28;20238;-69
2023/10/04 12:57:13;;;;;;;5.38;2.40;;;;;;;-145.68;55.42;74049.50;10494063;28;20685;-69
2023/10/04 13:02:14;;;;;;;5.05;2.70;;;;;;;-145.68;56.13;74071.50;10496917;28;20657;-69
2023/10/04 13:07:14;;;;;;;5.47;2.33;;;;;;;-145.68;56.32;74037.50;10494991;28;20587;-69
2023/10/04 13:12:15;;;;;;;7.68;2.83;;;;;;;-145.68;55.56;74035.50;10494934;28;20231;-70
2023/10/04 13:17:16;;;;;;;8.45;2.70;;;;;;;-145.68;56.18;74001.53;10494617;28;20701;-69
2023/10/04 13:22:16;;;;;;;5.93;2.70;;;;;;;-145.68;55.81;74053.50;10494878;28;20191;-68
2023/10/04 13:27:18;;;;;;;7.15;2.55;;;;;;;-145.68;56.10;73999.53;10494360;28;20219;-69
2023/10/04 13:32:19;;;;;;;6.10;2.67;;;;;;;-145.68;55.19;73989.53;10494239;28;20301;-69
2023/10/04 13:37:19;;;;;;;4.63;2.15;;;;;;;-145.68;57.45;74105.47;10494109;28;20707;-69
2023/10/04 13:42:20;;;;;;;8.35;3.15;;;;;;;-145.68;56.71;74043.50;10493595;28;20324;-68
2023/10/04 13:47:20;;;;;;;6.75;2.80;;;;;;;-145.68;55.37;73989.53;10494396;28;20242;-67
2023/10/04 13:52:21;;;;;;;9.25;2.70;;;;;;;-145.68;52.51;73873.59;10492946;28;20226;-68
2023/10/04 13:57:21;;;;;;;7.70;2.67;;;;;;;-145.68;52.44;73839.59;10493907;28;20221;-70
2023/10/04 14:02:22;;;;;;;7.43;3.78;;;;;;;-145.68;50.09;73791.63;10499554;28;20204;-68
2023/10/04 14:07:22;;;;;;;6.95;2.80;;;;;;;-145.68;47.22;73553.75;10493474;28;20630;-70
2023/10/04 14:12:23;;;;;;;5.38;2.70;;;;;;;-145.68;47.62;73743.66;10493391;28;20238;-70
2023/10/04 14:17:25;;;;;;;6.85;2.95;;;;;;;-145.68;51.48;73879.59;10493053;28;20211;-70
2023/10/04 14:22:25;;;;;;;6.45;2.80;;;;;;;-145.68;52.08;73941.56;10497795;28;20331;-70
2023/10/04 14:27:26;;;;;;;6.38;2.88;;;;;;;-145.68;52.04;73881.59;10492453;28;20343;-68
2023/10/04 14:32:27;;;;;;;7.82;3.00;;;;;;;-145.68;51.72;73825.63;10492685;28;20211;-69
2023/10/04 14:37:29;;;;;;;7.53;2.50;;;;;;;-145.68;52.52;73879.59;10495784;28;20214;-68
2023/10/04 14:42:32;;;;;;;7.03;2.58;;;;;;;-145.68;53.66;73981.53;10494405;28;20198;-67
2023/10/04 14:47:35;;;;;;;9.05;3.38;;;;;;;-145.68;50.55;73695.69;10491269;28;20215;-67
2023/10/04 14:52:36;;;;;;;5.45;2.55;;;;;;;-145.68;45.49;73375.88;10491478;28;20221;-68
2023/10/04 14:57:41;;;;;;;8.23;2.78;;;;;;;-145.68;44.17;73367.88;10495705;28;20305;-68
2023/10/04 15:02:45;;;;;;;5.68;2.95;;;;;;;-145.68;42.71;73317.91;10490966;28;20188;-68
2023/10/04 15:07:47;;;;;;;7.40;3.30;;;;;;;-145.68;45.30;73573.75;10493822;28;20215;-68
2023/10/04 15:12:48;;;;;;;6.88;2.75;;;;;;;-145.68;47.99;73687.69;10500059;28;20233;-68
2023/10/04 15:17:48;;;;;;;7.80;2.65;;;;;;;-145.68;49.76;73819.63;10503203;28;20309;-69
2023/10/04 15:22:49;;;;;;;5.88;2.70;;;;;;;-145.68;55.06;74091.47;10501419;28;20589;-68
2023/10/04 15:27:56;;;;;;;6.30;2.80;;;;;;;-145.68;55.44;74051.50;10497629;28;20572;-69
2023/10/04 15:32:56;;;;;;;8.55;2.67;;;;;;;-145.68;55.90;74089.47;10491387;28;20287;-69
2023/10/04 15:37:59;;;;;;;7.95;2.42;;;;;;;-145.68;58.00;74141.47;10494523;28;20221;-68
2023/10/04 15:43:04;;;;;;;5.60;2.40;;;;;;;-145.68;58.82;74123.47;10491225;28;20184;-69
2023/10/04 15:48:08;;;;;;;9.45;2.70;;;;;;;-145.68;58.90;74169.44;10495656;28;20222;-68
2023/10/04 15:53:09;;;;;;;5.90;2.50;;;;;;;-145.68;59.73;74111.47;10499078;28;20275;-68
2023/10/04 15:58:09;;;;;;;6.07;2.67;;;;;;;-145.68;59.34;74159.44;10497613;28;20298;-69
2023/10/04 16:03:10;;;;;;;6.32;2.50;;;;;;;-145.68;60.84;74203.44;10498268;28;20283;-68
2023/10/04 16:08:10;;;;;;;8.88;3.03;;;;;;;-145.68;62.53;74241.41;10498618;28;20243;-68
2023/10/04 16:13:11;;;;;;;9.73;2.95;;;;;;;-145.68;64.89;74283.41;10498980;28;20280;-67
2023/10/04 16:18:12;;;;;;;5.10;2.13;;;;;;;-145.68;66.13;74285.41;10498189;28;20292;-69
2023/10/04 16:23:12;;;;;;;8.95;3.80;;;;;;;-145.68;67.99;74349.38;10498936;28;20194;-69
2023/10/04 16:28:14;;;;;;;10.85;7.70;;;;;;;-145.68;67.61;74383.34;10465440;22;20244;-66
2023/10/04 16:33:15;;;;;;;5.53;2.92;;;;;;;-145.68;67.68;74389.34;10446334;28;20217;-66
2023/10/04 16:38:15;;;;;;;11.77;4.50;;;;;;;-145.68;69.93;74415.34;10446041;28;20220;-65
2023/10/04 16:43:16;;;;;;;5.10;3.20;;;;;;;-145.68;70.90;74465.31;10443958;28;20181;-66
2023/10/04 16:48:16;;;;;;;7.78;2.90;;;;;;;-145.68;72.13;74489.31;10444756;28;20220;-66
2023/10/04 16:53:17;;;;;;;4.63;2.78;;;;;;;-145.68;72.70;74499.31;10444376;28;20213;-66
2023/10/04 16:58:18;;;;;;;6.35;2.65;;;;;;;-145.68;73.96;74481.31;10425787;28;20213;-65
2023/10/04 17:03:20;;;;;;;6.13;2.80;;;;;;;-145.68;73.94;74487.31;10443871;28;20192;-67
2023/10/04 17:08:21;;;;;;;6.88;2.83;;;;;;;-145.68;74.58;74485.31;10442729;28;20219;-64
2023/10/04 17:13:21;;;;;;;10.73;2.65;;;;;;;-145.68;78.23;74513.31;10437428;28;20250;-65
2023/10/04 17:18:22;;;;;;;4.75;2.92;;;;;;;-145.68;79.85;74551.28;10441708;28;20231;-65
2023/10/04 17:23:22;;;;;;;5.20;2.72;;;;;;;-145.68;80.82;74563.28;10443369;28;20198;-65
2023/10/04 17:28:22;;;;;;;5.78;2.90;;;;;;;-145.68;81.16;74561.28;10432866;28;20502;-65
2023/10/04 17:33:24;;;;;;;10.85;3.10;;;;;;;-145.68;81.41;74579.28;10437019;28;20227;-65
2023/10/04 17:38:25;;;;;;;6.10;2.85;;;;;;;-145.68;84.72;74619.28;10442618;28;20212;-63
2023/10/04 17:43:26;;;;;;;6.93;3.40;;;;;;;-145.68;87.10;74631.28;10432680;28;20207;-64
2023/10/04 17:48:26;;;;;;;7.57;3.40;;;;;;;-145.68;88.37;74655.25;10435490;28;20218;-65
2023/10/04 17:53:27;;;;;;;8.90;4.18;;;;;;;-145.68;89.60;74661.25;10442982;28;20579;-64
2023/10/04 17:58:28;;;;;;;7.30;2.87;;;;;;;-145.68;91.54;74649.25;10441979;28;20212;-64
2023/10/04 18:03:28;;;;;;;7.50;3.53;;;;;;;-145.68;92.68;74671.25;10439072;28;20199;-67
2023/10/04 18:08:29;;;;;;;6.37;3.33;;;;;;;-145.68;91.78;74651.25;10426403;28;20234;-65
2023/10/04 18:13:30;;;;;;;5.63;3.17;;;;;;;-145.68;90.81;74635.28;10425274;28;20697;-64
2023/10/04 18:18:31;;;;;;;8.73;3.20;;;;;;;-145.68;90.62;74643.28;10435437;28;20269;-65
2023/10/04 18:23:31;;;;;;;7.72;3.50;;;;;;;-145.68;90.27;74635.28;10440877;28;20219;-65
2023/10/04 18:28:31;;;;;;;5.23;3.43;;;;;;;-145.68;91.44;74661.25;10440678;28;20223;-65
2023/10/04 18:33:33;;;;;;;7.13;3.10;;;;;;;-145.68;90.95;74651.25;10439794;28;20191;-66
2023/10/04 18:38:33;;;;;;;9.30;3.23;;;;;;;-145.68;91.42;74653.25;10432789;28;20216;-65
2023/10/04 18:43:34;;;;;;;6.73;3.50;;;;;;;-145.68;91.89;74683.25;10433062;28;20237;-65
2023/10/04 18:48:34;;;;;;;5.13;2.90;;;;;;;-145.68;92.67;74673.25;10438375;28;20239;-65
2023/10/04 18:53:34;;;;;;;6.73;3.33;;;;;;;-145.68;93.53;74685.25;10430776;28;20188;-66
2023/10/04 18:58:35;;;;;;;9.27;3.60;;;;;;;-145.68;95.34;74707.25;10436417;28;20214;-66
2023/10/04 19:03:35;;;;;;;7.63;3.40;;;;;;;-145.68;96.59;74705.25;10440216;28;20303;-66
2023/10/04 19:08:37;;;;;;;6.70;3.20;;;;;;;-145.68;96.52;74707.25;10434380;28;20586;-66
2023/10/04 19:13:38;;;;;;;6.10;3.10;;;;;;;-145.68;96.48;74721.25;10436606;28;20192;-66
2023/10/04 19:18:38;;;;;;;11.00;3.63;;;;;;;-145.68;96.98;74747.25;10439547;28;20222;-64
2023/10/04 19:23:41;;;;;;;6.93;4.13;;;;;;;-145.68;99.60;74755.22;10439351;28;20307;-65
2023/10/04 19:28:41;;;;;;;7.43;3.80;;;;;;;-145.68;98.90;74747.25;10441338;28;20235;-65
2023/10/04 19:33:42;;;;;;;6.13;3.30;;;;;;;-145.68;99.17;74757.22;10422526;28;20188;-65
2023/10/04 19:38:42;;;;;;;8.03;3.20;;;;;;;-145.68;100.00;74779.22;10440268;28;20294;-64
2023/10/04 19:43:43;;;;;;;5.67;2.97;;;;;;;-145.68;99.65;74769.22;10440126;28;20220;-65
2023/10/04 19:48:43;;;;;;;7.20;3.00;;;;;;;-145.68;99.55;74777.22;10439118;28;20222;-64
2023/10/04 19:53:44;;;;;;;6.30;3.20;;;;;;;-145.68;99.50;74775.22;10430898;28;20529;-65
2023/10/04 19:58:44;;;;;;;5.57;2.90;;;;;;;-145.68;98.56;74779.22;10421959;28;20215;-64
2023/10/04 20:03:45;;;;;;;5.73;3.30;;;;;;;-145.68;98.32;74771.22;10430635;28;20215;-65
2023/10/04 20:08:46;;;;;;;5.83;3.40;;;;;;;-145.68;98.90;74783.22;10438389;28;20226;-67
2023/10/04 20:13:47;;;;;;;6.57;3.20;;;;;;;-145.68;99.60;74785.22;10421714;28;20674;-66
2023/10/04 20:18:47;;;;;;;7.40;3.67;;;;;;;-145.68;98.86;74767.22;10431619;28;20230;-65
2023/10/04 20:23:50;;;;;;;6.57;3.17;;;;;;;-145.68;98.03;74755.22;10435299;28;20210;-64
2023/10/04 20:28:51;;;;;;;7.53;3.00;;;;;;;-145.68;97.73;74757.22;10438605;28;20261;-65
2023/10/04 20:33:51;;;;;;;5.63;2.57;;;;;;;-145.68;98.43;74761.22;10440894;28;20279;-66
2023/10/04 20:38:52;;;;;;;7.07;3.00;;;;;;;-145.68;98.55;74771.22;10446951;28;20291;-64
2023/10/04 20:43:52;;;;;;;5.27;3.03;;;;;;;-145.68;99.15;74763.22;10445977;28;20192;-64
2023/10/04 20:48:53;;;;;;;7.77;3.33;;;;;;;-145.68;98.53;74763.22;10446564;28;20286;-64
2023/10/04 20:53:53;;;;;;;4.03;2.70;;;;;;;-145.68;98.41;74765.22;10445791;28;20246;-65
2023/10/04 20:58:54;;;;;;;4.53;3.00;;;;;;;-145.68;99.19;74787.22;10445895;28;20208;-65
2023/10/04 21:03:54;;;;;;;6.67;3.50;;;;;;;-145.68;99.98;74783.22;10445176;28;20245;-66
2023/10/04 21:08:54;;;;;;;5.73;3.23;;;;;;;-145.68;100.00;74787.22;10444794;28;20208;-66
2023/10/04 21:13:55;;;;;;;6.30;3.10;;;;;;;-145.68;100.00;74789.22;10445047;28;20271;-65
2023/10/04 21:18:55;;;;;;;6.43;2.83;;;;;;;-145.68;100.00;74791.22;10444502;28;20219;-64
2023/10/04 21:23:57;;;;;;;5.87;3.20;;;;;;;-145.68;100.00;74807.22;10445110;28;20192;-64
2023/10/04 21:28:58;;;;;;;4.70;2.83;;;;;;;-145.68;100.00;74791.22;10445039;28;20610;-65
2023/10/04 21:34:07;;;;;;;5.43;3.40;;;;;;;-145.68;100.00;74795.22;10444811;28;20199;-65
2023/10/04 21:39:10;;;;;;;5.60;3.00;;;;;;;-145.68;100.00;74785.22;10441391;28;20262;-66
2023/10/04 21:44:13;;;;;;;7.90;2.90;;;;;;;-145.68;99.97;74765.22;10443873;28;20211;-66
2023/10/04 21:49:14;;;;;;;6.47;3.23;;;;;;;-145.68;97.95;74755.22;10443362;28;20213;-65
2023/10/04 21:54:15;;;;;;;7.60;3.07;;;;;;;-145.68;96.67;74751.22;10444357;28;20647;-65
2023/10/04 21:59:16;;;;;;;5.30;3.33;;;;;;;-145.68;96.71;74765.22;10443536;28;20862;-65
2023/10/04 22:04:17;;;;;;;5.70;2.80;;;;;;;-145.68;98.96;74793.22;10442966;28;20196;-66
2023/10/04 22:09:18;;;;;;;5.40;2.90;;;;;;;-145.68;100.00;74817.22;10443661;28;20236;-64
2023/10/04 22:14:19;;;;;;;7.03;2.70;;;;;;;-145.68;100.00;74813.22;10443243;28;20268;-65
2023/10/04 22:19:20;;;;;;;8.27;2.80;;;;;;;-145.68;100.00;74787.22;10442499;28;20289;-65
2023/10/04 22:24:20;;;;;;;8.87;3.23;;;;;;;-145.68;100.00;74803.22;10443707;28;20249;-65
2023/10/04 22:29:20;;;;;;;5.03;2.73;;;;;;;-145.68;100.00;74795.22;10450532;23;20248;-67
2023/10/04 22:34:21;;;;;;;4.90;2.87;;;;;;;-145.68;100.00;74801.22;10442891;28;20686;-67
2023/10/04 22:39:22;;;;;;;10.30;3.10;;;;;;;-145.68;100.00;74821.22;10442177;28;20712;-67
2023/10/04 22:44:22;;;;;;;5.70;3.13;;;;;;;-145.68;100.00;74821.22;10441742;28;20199;-68